sensor_id;sensor_type;location;lat;lon;timestamp;pressure;altitude;pressure_sealevel;temperature;humidity
41254;BME280;26987;59.928;30.306;2023-04-10T00:01:11;102573.97;;;3.18;48.10
41254;BME280;26987;59.928;30.306;2023-04-10T00:03:39;102562.63;;;3.15;48.34
41254;BME280;26987;59.928;30.306;2023-04-10T00:06:07;102566.91;;;3.05;48.44
41254;BME280;26987;59.928;30.306;2023-04-10T00:08:35;102570.16;;;3.09;48.52
41254;BME280;26987;59.928;30.306;2023-04-10T00:11:05;102574.66;;;3.08;49.11
41254;BME280;26987;59.928;30.306;2023-04-10T00:13:32;102566.38;;;3.00;49.04
41254;BME280;26987;59.928;30.306;2023-04-10T00:16:03;102567.78;;;3.06;49.13
41254;BME280;26987;59.928;30.306;2023-04-10T00:18:30;102554.88;;;2.88;49.22
41254;BME280;26987;59.928;30.306;2023-04-10T00:20:58;102573.84;;;2.95;50.07
41254;BME280;26987;59.928;30.306;2023-04-10T00:23:26;102569.72;;;2.90;49.47
41254;BME280;26987;59.928;30.306;2023-04-10T00:25:57;102574.41;;;2.87;49.99
41254;BME280;26987;59.928;30.306;2023-04-10T00:28:26;102539.34;;;2.70;49.94
41254;BME280;26987;59.928;30.306;2023-04-10T00:30:54;102563.41;;;2.80;50.21
41254;BME280;26987;59.928;30.306;2023-04-10T00:33:22;102565.31;;;2.78;50.44
41254;BME280;26987;59.928;30.306;2023-04-10T00:35:49;102568.16;;;2.75;50.99
41254;BME280;26987;59.928;30.306;2023-04-10T00:38:17;102562.00;;;2.74;50.82
41254;BME280;26987;59.928;30.306;2023-04-10T00:40:47;102559.47;;;2.73;51.00
41254;BME280;26987;59.928;30.306;2023-04-10T00:43:16;102556.31;;;2.68;51.29
41254;BME280;26987;59.928;30.306;2023-04-10T00:45:47;102554.66;;;2.67;51.46
41254;BME280;26987;59.928;30.306;2023-04-10T00:48:15;102553.38;;;2.59;52.25
41254;BME280;26987;59.928;30.306;2023-04-10T00:50:44;102555.06;;;2.60;52.40
41254;BME280;26987;59.928;30.306;2023-04-10T00:53:13;102562.06;;;2.61;52.32
41254;BME280;26987;59.928;30.306;2023-04-10T00:55:41;102560.06;;;2.52;52.86
41254;BME280;26987;59.928;30.306;2023-04-10T00:58:09;102534.13;;;2.31;52.40
41254;BME280;26987;59.928;30.306;2023-04-10T01:00:40;102565.78;;;2.46;52.75
41254;BME280;26987;59.928;30.306;2023-04-10T01:03:10;102567.69;;;2.57;52.57
41254;BME280;26987;59.928;30.306;2023-04-10T01:05:43;102563.44;;;2.54;52.52
41254;BME280;26987;59.928;30.306;2023-04-10T01:08:20;102563.88;;;2.48;52.90
41254;BME280;26987;59.928;30.306;2023-04-10T01:10:57;102565.06;;;2.44;53.03
41254;BME280;26987;59.928;30.306;2023-04-10T01:13:33;102566.19;;;2.39;53.16
41254;BME280;26987;59.928;30.306;2023-04-10T01:16:07;102568.84;;;2.39;53.06
41254;BME280;26987;59.928;30.306;2023-04-10T01:18:42;102563.06;;;2.34;53.48
41254;BME280;26987;59.928;30.306;2023-04-10T01:21:13;102556.38;;;2.29;53.71
41254;BME280;26987;59.928;30.306;2023-04-10T01:23:53;102564.94;;;2.32;53.92
41254;BME280;26987;59.928;30.306;2023-04-10T01:26:41;102568.66;;;2.30;53.91
41254;BME280;26987;59.928;30.306;2023-04-10T01:29:17;102562.97;;;2.23;54.80
41254;BME280;26987;59.928;30.306;2023-04-10T01:31:49;102573.31;;;2.26;54.74
41254;BME280;26987;59.928;30.306;2023-04-10T01:34:21;102564.00;;;2.20;54.54
41254;BME280;26987;59.928;30.306;2023-04-10T01:36:52;102565.06;;;2.18;54.81
41254;BME280;26987;59.928;30.306;2023-04-10T01:39:23;102564.41;;;2.14;55.42
41254;BME280;26987;59.928;30.306;2023-04-10T01:41:53;102570.34;;;2.18;55.14
41254;BME280;26987;59.928;30.306;2023-04-10T01:44:37;102570.16;;;2.21;55.25
41254;BME280;26987;59.928;30.306;2023-04-10T01:47:07;102572.25;;;2.16;55.75
41254;BME280;26987;59.928;30.306;2023-04-10T01:49:37;102533.81;;;1.84;56.26
41254;BME280;26987;59.928;30.306;2023-04-10T01:52:10;102574.28;;;2.12;56.55
41254;BME280;26987;59.928;30.306;2023-04-10T01:54:39;102570.78;;;2.11;56.11
41254;BME280;26987;59.928;30.306;2023-04-10T01:57:11;102576.28;;;2.08;56.59
41254;BME280;26987;59.928;30.306;2023-04-10T01:59:52;102563.25;;;2.05;56.69
41254;BME280;26987;59.928;30.306;2023-04-10T02:02:20;102563.56;;;2.00;57.05
41254;BME280;26987;59.928;30.306;2023-04-10T02:04:48;102561.25;;;1.96;57.40
41254;BME280;26987;59.928;30.306;2023-04-10T02:07:23;102568.13;;;1.98;57.14
41254;BME280;26987;59.928;30.306;2023-04-10T02:09:57;102565.81;;;1.94;57.78
41254;BME280;26987;59.928;30.306;2023-04-10T02:12:29;102519.72;;;1.57;57.91
41254;BME280;26987;59.928;30.306;2023-04-10T02:15:00;102563.97;;;1.81;58.39
41254;BME280;26987;59.928;30.306;2023-04-10T02:17:30;102531.78;;;1.61;58.31
41254;BME280;26987;59.928;30.306;2023-04-10T02:20:00;102566.00;;;1.78;58.63
41254;BME280;26987;59.928;30.306;2023-04-10T02:22:29;102566.31;;;1.73;59.00
41254;BME280;26987;59.928;30.306;2023-04-10T02:24:58;102572.53;;;1.72;58.89
41254;BME280;26987;59.928;30.306;2023-04-10T02:27:28;102577.50;;;1.76;59.11
41254;BME280;26987;59.928;30.306;2023-04-10T02:30:00;102541.53;;;1.61;59.10
41254;BME280;26987;59.928;30.306;2023-04-10T02:32:29;102572.88;;;1.80;58.84
41254;BME280;26987;59.928;30.306;2023-04-10T02:34:58;102555.63;;;1.74;58.71
41254;BME280;26987;59.928;30.306;2023-04-10T02:37:27;102565.13;;;1.77;58.96
41254;BME280;26987;59.928;30.306;2023-04-10T02:39:55;102567.03;;;1.75;59.13
41254;BME280;26987;59.928;30.306;2023-04-10T02:42:25;102558.47;;;1.71;59.28
41254;BME280;26987;59.928;30.306;2023-04-10T02:44:56;102574.97;;;1.75;59.07
41254;BME280;26987;59.928;30.306;2023-04-10T02:47:30;102577.09;;;1.70;59.63
41254;BME280;26987;59.928;30.306;2023-04-10T02:49:58;102568.59;;;1.64;59.68
41254;BME280;26987;59.928;30.306;2023-04-10T02:52:30;102563.41;;;1.63;59.82
41254;BME280;26987;59.928;30.306;2023-04-10T02:54:58;102553.13;;;1.58;59.97
41254;BME280;26987;59.928;30.306;2023-04-10T02:57:34;102579.03;;;1.81;59.87
41254;BME280;26987;59.928;30.306;2023-04-10T03:00:03;102561.44;;;1.80;59.52
41254;BME280;26987;59.928;30.306;2023-04-10T03:02:52;102562.03;;;1.70;59.42
41254;BME280;26987;59.928;30.306;2023-04-10T03:05:20;102566.31;;;1.73;59.64
41254;BME280;26987;59.928;30.306;2023-04-10T03:07:48;102576.78;;;1.74;59.83
41254;BME280;26987;59.928;30.306;2023-04-10T03:10:18;102571.81;;;1.70;59.99
41254;BME280;26987;59.928;30.306;2023-04-10T03:12:47;102558.22;;;1.61;59.83
41254;BME280;26987;59.928;30.306;2023-04-10T03:15:15;102578.78;;;1.71;59.98
41254;BME280;26987;59.928;30.306;2023-04-10T03:17:43;102577.50;;;1.76;60.04
41254;BME280;26987;59.928;30.306;2023-04-10T03:20:12;102577.66;;;2.01;59.02
41254;BME280;26987;59.928;30.306;2023-04-10T03:22:41;102573.63;;;2.34;58.50
41254;BME280;26987;59.928;30.306;2023-04-10T03:25:10;102575.41;;;2.60;56.97
41254;BME280;26987;59.928;30.306;2023-04-10T03:27:38;102580.66;;;2.73;56.62
41254;BME280;26987;59.928;30.306;2023-04-10T03:30:08;102578.63;;;2.89;56.18
41254;BME280;26987;59.928;30.306;2023-04-10T03:32:40;102581.31;;;3.14;55.36
41254;BME280;26987;59.928;30.306;2023-04-10T03:35:08;102577.69;;;3.39;54.88
41254;BME280;26987;59.928;30.306;2023-04-10T03:37:38;102578.16;;;3.69;53.54
41254;BME280;26987;59.928;30.306;2023-04-10T03:40:08;102579.94;;;4.04;52.40
41254;BME280;26987;59.928;30.306;2023-04-10T03:42:36;102579.50;;;4.45;51.43
41254;BME280;26987;59.928;30.306;2023-04-10T03:45:06;102574.72;;;4.95;49.58
41254;BME280;26987;59.928;30.306;2023-04-10T03:47:34;102581.25;;;5.35;47.83
41254;BME280;26987;59.928;30.306;2023-04-10T03:50:06;102584.44;;;5.83;46.72
41254;BME280;26987;59.928;30.306;2023-04-10T03:52:46;102584.50;;;6.35;45.64
41254;BME280;26987;59.928;30.306;2023-04-10T03:55:16;102579.84;;;6.68;44.50
41254;BME280;26987;59.928;30.306;2023-04-10T03:57:46;102579.31;;;6.94;43.69
41254;BME280;26987;59.928;30.306;2023-04-10T04:00:16;102581.66;;;7.29;42.99
41254;BME280;26987;59.928;30.306;2023-04-10T04:02:46;102587.25;;;7.45;42.39
41254;BME280;26987;59.928;30.306;2023-04-10T04:05:36;102579.06;;;7.97;41.41
41254;BME280;26987;59.928;30.306;2023-04-10T04:08:26;102579.28;;;8.61;40.18
41254;BME280;26987;59.928;30.306;2023-04-10T04:11:23;102580.94;;;8.90;39.26
41254;BME280;26987;59.928;30.306;2023-04-10T04:14:11;102577.91;;;9.03;38.79
41254;BME280;26987;59.928;30.306;2023-04-10T04:16:55;102569.13;;;9.11;38.67
41254;BME280;26987;59.928;30.306;2023-04-10T04:19:52;102586.91;;;9.57;37.83
41254;BME280;26987;59.928;30.306;2023-04-10T04:22:42;102591.47;;;10.36;36.39
41254;BME280;26987;59.928;30.306;2023-04-10T04:25:31;102557.06;;;10.58;35.79
41254;BME280;26987;59.928;30.306;2023-04-10T04:28:08;102587.41;;;11.27;34.75
41254;BME280;26987;59.928;30.306;2023-04-10T04:30:55;102594.81;;;11.66;34.32
41254;BME280;26987;59.928;30.306;2023-04-10T04:33:41;102595.13;;;12.05;33.24
41254;BME280;26987;59.928;30.306;2023-04-10T04:36:29;102596.75;;;12.31;32.80
41254;BME280;26987;59.928;30.306;2023-04-10T04:39:14;102593.50;;;12.44;32.83
41254;BME280;26987;59.928;30.306;2023-04-10T04:42:01;102602.75;;;12.49;32.43
41254;BME280;26987;59.928;30.306;2023-04-10T04:44:32;102598.78;;;12.29;32.85
41254;BME280;26987;59.928;30.306;2023-04-10T04:47:15;102592.69;;;12.35;32.53
41254;BME280;26987;59.928;30.306;2023-04-10T04:50:07;102598.13;;;12.18;33.06
41254;BME280;26987;59.928;30.306;2023-04-10T04:53:02;102581.84;;;12.03;32.67
41254;BME280;26987;59.928;30.306;2023-04-10T04:55:40;102597.72;;;12.38;32.58
41254;BME280;26987;59.928;30.306;2023-04-10T04:58:38;102590.19;;;12.73;31.83
41254;BME280;26987;59.928;30.306;2023-04-10T05:01:35;102590.28;;;13.12;31.32
41254;BME280;26987;59.928;30.306;2023-04-10T05:04:31;102592.06;;;14.20;29.95
41254;BME280;26987;59.928;30.306;2023-04-10T05:07:18;102583.31;;;14.18;29.82
41254;BME280;26987;59.928;30.306;2023-04-10T05:09:46;102589.91;;;14.46;29.50
41254;BME280;26987;59.928;30.306;2023-04-10T05:12:41;102585.50;;;14.60;29.13
41254;BME280;26987;59.928;30.306;2023-04-10T05:15:24;102593.16;;;14.71;29.14
41254;BME280;26987;59.928;30.306;2023-04-10T05:18:10;102591.44;;;15.22;28.76
41254;BME280;26987;59.928;30.306;2023-04-10T05:20:57;102591.53;;;15.86;27.94
41254;BME280;26987;59.928;30.306;2023-04-10T05:23:54;102591.66;;;16.00;27.38
41254;BME280;26987;59.928;30.306;2023-04-10T05:26:49;102578.91;;;16.29;26.71
41254;BME280;26987;59.928;30.306;2023-04-10T05:29:40;102585.22;;;15.50;27.84
41254;BME280;26987;59.928;30.306;2023-04-10T05:32:27;102577.22;;;15.93;27.63
41254;BME280;26987;59.928;30.306;2023-04-10T05:35:15;102587.34;;;15.84;27.42
41254;BME280;26987;59.928;30.306;2023-04-10T05:37:53;102580.38;;;15.68;27.42
41254;BME280;26987;59.928;30.306;2023-04-10T05:40:30;102586.78;;;15.88;27.19
41254;BME280;26987;59.928;30.306;2023-04-10T05:43:16;102590.41;;;16.38;26.69
41254;BME280;26987;59.928;30.306;2023-04-10T05:46:02;102585.06;;;16.16;26.91
41254;BME280;26987;59.928;30.306;2023-04-10T05:48:51;102591.84;;;16.96;26.17
41254;BME280;26987;59.928;30.306;2023-04-10T05:51:37;102590.69;;;17.19;25.90
41254;BME280;26987;59.928;30.306;2023-04-10T05:54:24;102582.59;;;16.70;26.11
41254;BME280;26987;59.928;30.306;2023-04-10T05:57:24;102584.34;;;16.92;25.89
41254;BME280;26987;59.928;30.306;2023-04-10T06:00:16;102585.97;;;16.72;26.30
41254;BME280;26987;59.928;30.306;2023-04-10T06:03:07;102578.28;;;16.83;25.94
41254;BME280;26987;59.928;30.306;2023-04-10T06:05:48;102592.78;;;17.31;25.63
41254;BME280;26987;59.928;30.306;2023-04-10T06:08:16;102591.13;;;17.43;25.39
41254;BME280;26987;59.928;30.306;2023-04-10T06:10:45;102586.94;;;17.40;25.24
41254;BME280;26987;59.928;30.306;2023-04-10T06:13:13;102599.47;;;17.35;25.55
41254;BME280;26987;59.928;30.306;2023-04-10T06:15:41;102595.72;;;17.63;25.20
41254;BME280;26987;59.928;30.306;2023-04-10T06:18:09;102602.78;;;17.77;25.29
41254;BME280;26987;59.928;30.306;2023-04-10T06:20:37;102598.59;;;17.95;24.83
41254;BME280;26987;59.928;30.306;2023-04-10T06:23:06;102600.25;;;17.89;24.95
41254;BME280;26987;59.928;30.306;2023-04-10T06:25:36;102599.47;;;17.75;24.85
41254;BME280;26987;59.928;30.306;2023-04-10T06:28:04;102602.19;;;17.75;24.69
41254;BME280;26987;59.928;30.306;2023-04-10T06:30:32;102604.88;;;17.75;24.67
41254;BME280;26987;59.928;30.306;2023-04-10T06:33:03;102608.63;;;17.61;25.00
41254;BME280;26987;59.928;30.306;2023-04-10T06:35:34;102604.47;;;17.24;25.46
41254;BME280;26987;59.928;30.306;2023-04-10T06:38:03;102596.47;;;16.96;25.81
41254;BME280;26987;59.928;30.306;2023-04-10T06:40:35;102604.22;;;16.57;26.43
41254;BME280;26987;59.928;30.306;2023-04-10T06:43:03;102601.84;;;16.33;26.67
41254;BME280;26987;59.928;30.306;2023-04-10T06:45:38;102600.31;;;17.69;26.53
41254;BME280;26987;59.928;30.306;2023-04-10T06:48:06;102599.50;;;15.66;27.60
41254;BME280;26987;59.928;30.306;2023-04-10T06:50:34;102590.25;;;15.10;28.53
41254;BME280;26987;59.928;30.306;2023-04-10T06:53:01;102579.19;;;14.68;28.99
41254;BME280;26987;59.928;30.306;2023-04-10T06:55:29;102598.59;;;14.41;29.67
41254;BME280;26987;59.928;30.306;2023-04-10T06:57:59;102596.88;;;14.10;29.94
41254;BME280;26987;59.928;30.306;2023-04-10T07:00:27;102595.41;;;13.54;30.77
41254;BME280;26987;59.928;30.306;2023-04-10T07:02:55;102575.72;;;13.30;31.06
41254;BME280;26987;59.928;30.306;2023-04-10T07:05:22;102583.16;;;12.96;31.52
41254;BME280;26987;59.928;30.306;2023-04-10T07:07:50;102593.81;;;12.89;32.02
41254;BME280;26987;59.928;30.306;2023-04-10T07:10:18;102591.03;;;12.74;32.01
41254;BME280;26987;59.928;30.306;2023-04-10T07:12:46;102587.66;;;12.72;32.35
41254;BME280;26987;59.928;30.306;2023-04-10T07:15:15;102592.53;;;12.77;32.10
41254;BME280;26987;59.928;30.306;2023-04-10T07:17:43;102589.75;;;12.53;33.01
41254;BME280;26987;59.928;30.306;2023-04-10T07:20:11;102585.44;;;12.44;33.06
41254;BME280;26987;59.928;30.306;2023-04-10T07:22:39;102593.56;;;12.27;33.36
41254;BME280;26987;59.928;30.306;2023-04-10T07:25:08;102591.41;;;12.06;33.64
41254;BME280;26987;59.928;30.306;2023-04-10T07:27:36;102569.78;;;11.74;34.45
41254;BME280;26987;59.928;30.306;2023-04-10T07:30:04;102590.44;;;11.73;34.60
41254;BME280;26987;59.928;30.306;2023-04-10T07:32:34;102587.25;;;11.70;35.01
41254;BME280;26987;59.928;30.306;2023-04-10T07:35:04;102584.91;;;11.67;34.98
41254;BME280;26987;59.928;30.306;2023-04-10T07:37:32;102572.28;;;11.51;34.92
41254;BME280;26987;59.928;30.306;2023-04-10T07:40:00;102600.53;;;11.55;35.24
41254;BME280;26987;59.928;30.306;2023-04-10T07:42:29;102573.81;;;11.45;35.41
41254;BME280;26987;59.928;30.306;2023-04-10T07:44:57;102588.09;;;11.54;34.84
41254;BME280;26987;59.928;30.306;2023-04-10T07:47:24;102574.81;;;11.52;34.95
41254;BME280;26987;59.928;30.306;2023-04-10T07:49:54;102590.25;;;11.58;35.08
41254;BME280;26987;59.928;30.306;2023-04-10T07:52:22;102590.63;;;11.64;35.13
41254;BME280;26987;59.928;30.306;2023-04-10T07:54:49;102584.41;;;11.55;35.44
41254;BME280;26987;59.928;30.306;2023-04-10T07:57:17;102581.38;;;11.58;34.88
41254;BME280;26987;59.928;30.306;2023-04-10T07:59:45;102566.25;;;11.57;35.01
41254;BME280;26987;59.928;30.306;2023-04-10T08:02:13;102583.38;;;11.56;35.15
41254;BME280;26987;59.928;30.306;2023-04-10T08:04:41;102588.06;;;11.70;35.54
41254;BME280;26987;59.928;30.306;2023-04-10T08:07:10;102581.38;;;11.66;35.24
41254;BME280;26987;59.928;30.306;2023-04-10T08:09:38;102556.69;;;11.54;35.05
41254;BME280;26987;59.928;30.306;2023-04-10T08:12:06;102586.75;;;11.66;35.25
41254;BME280;26987;59.928;30.306;2023-04-10T08:14:34;102586.41;;;11.69;36.00
41254;BME280;26987;59.928;30.306;2023-04-10T08:17:01;102568.75;;;11.75;35.26
41254;BME280;26987;59.928;30.306;2023-04-10T08:19:29;102573.63;;;11.88;35.34
41254;BME280;26987;59.928;30.306;2023-04-10T08:21:57;102571.13;;;11.70;35.59
41254;BME280;26987;59.928;30.306;2023-04-10T08:24:26;102573.97;;;11.85;35.56
41254;BME280;26987;59.928;30.306;2023-04-10T08:26:54;102541.41;;;11.71;35.68
41254;BME280;26987;59.928;30.306;2023-04-10T08:29:22;102563.38;;;11.92;35.19
41254;BME280;26987;59.928;30.306;2023-04-10T08:31:50;102566.88;;;12.01;35.20
41254;BME280;26987;59.928;30.306;2023-04-10T08:34:19;102565.19;;;11.99;35.44
41254;BME280;26987;59.928;30.306;2023-04-10T08:36:49;102568.72;;;12.08;35.45
41254;BME280;26987;59.928;30.306;2023-04-10T08:39:17;102567.22;;;12.06;35.71
41254;BME280;26987;59.928;30.306;2023-04-10T08:41:46;102572.25;;;12.17;35.70
41254;BME280;26987;59.928;30.306;2023-04-10T08:44:14;102562.63;;;12.23;35.39
41254;BME280;26987;59.928;30.306;2023-04-10T08:46:43;102568.19;;;12.21;34.94
41254;BME280;26987;59.928;30.306;2023-04-10T08:49:16;102527.72;;;12.06;35.67
41254;BME280;26987;59.928;30.306;2023-04-10T08:51:54;102555.22;;;12.33;35.63
41254;BME280;26987;59.928;30.306;2023-04-10T08:54:26;102561.47;;;12.26;35.30
41254;BME280;26987;59.928;30.306;2023-04-10T08:56:56;102549.00;;;12.33;35.13
41254;BME280;26987;59.928;30.306;2023-04-10T08:59:27;102546.94;;;12.35;35.54
41254;BME280;26987;59.928;30.306;2023-04-10T09:01:56;102548.94;;;12.49;35.33
41254;BME280;26987;59.928;30.306;2023-04-10T09:04:24;102554.09;;;12.59;35.05
41254;BME280;26987;59.928;30.306;2023-04-10T09:06:52;102550.25;;;12.54;34.94
41254;BME280;26987;59.928;30.306;2023-04-10T09:09:20;102535.50;;;12.41;35.21
41254;BME280;26987;59.928;30.306;2023-04-10T09:11:59;102540.09;;;12.64;35.31
41254;BME280;26987;59.928;30.306;2023-04-10T09:14:30;102543.56;;;12.49;35.26
41254;BME280;26987;59.928;30.306;2023-04-10T09:17:12;102542.94;;;12.71;35.43
41254;BME280;26987;59.928;30.306;2023-04-10T09:19:41;102516.47;;;12.51;35.22
41254;BME280;26987;59.928;30.306;2023-04-10T09:22:09;102539.16;;;12.80;35.50
41254;BME280;26987;59.928;30.306;2023-04-10T09:24:38;102511.16;;;12.66;35.23
41254;BME280;26987;59.928;30.306;2023-04-10T09:27:08;102538.94;;;12.90;34.92
41254;BME280;26987;59.928;30.306;2023-04-10T09:29:41;102532.38;;;12.93;35.12
41254;BME280;26987;59.928;30.306;2023-04-10T09:32:10;102520.63;;;12.85;34.93
41254;BME280;26987;59.928;30.306;2023-04-10T09:34:52;102526.69;;;13.11;34.66
41254;BME280;26987;59.928;30.306;2023-04-10T09:37:20;102530.22;;;13.11;34.64
41254;BME280;26987;59.928;30.306;2023-04-10T09:39:48;102529.00;;;13.14;34.43
41254;BME280;26987;59.928;30.306;2023-04-10T09:42:29;102529.97;;;13.21;34.86
41254;BME280;26987;59.928;30.306;2023-04-10T09:44:58;102535.53;;;13.20;34.58
41254;BME280;26987;59.928;30.306;2023-04-10T09:47:27;102520.94;;;13.14;34.45
41254;BME280;26987;59.928;30.306;2023-04-10T09:49:56;102525.59;;;13.20;34.25
41254;BME280;26987;59.928;30.306;2023-04-10T09:52:27;102522.19;;;13.27;34.71
41254;BME280;26987;59.928;30.306;2023-04-10T09:54:57;102518.97;;;13.31;34.71
41254;BME280;26987;59.928;30.306;2023-04-10T09:57:28;102478.97;;;13.20;34.60
41254;BME280;26987;59.928;30.306;2023-04-10T09:59:57;102510.69;;;13.48;34.17
41254;BME280;26987;59.928;30.306;2023-04-10T10:02:28;102509.38;;;13.52;34.11
41254;BME280;26987;59.928;30.306;2023-04-10T10:04:57;102512.81;;;13.61;33.81
41254;BME280;26987;59.928;30.306;2023-04-10T10:07:26;102505.75;;;13.60;33.97
41254;BME280;26987;59.928;30.306;2023-04-10T10:09:57;102502.13;;;13.68;34.09
41254;BME280;26987;59.928;30.306;2023-04-10T10:12:30;102503.16;;;13.82;33.93
41254;BME280;26987;59.928;30.306;2023-04-10T10:15:05;102497.66;;;13.90;33.52
41254;BME280;26987;59.928;30.306;2023-04-10T10:17:38;102503.34;;;13.95;33.60
41254;BME280;26987;59.928;30.306;2023-04-10T10:20:10;102504.25;;;14.03;33.42
41254;BME280;26987;59.928;30.306;2023-04-10T10:22:40;102481.88;;;14.02;33.15
41254;BME280;26987;59.928;30.306;2023-04-10T10:25:09;102500.94;;;14.16;32.75
41254;BME280;26987;59.928;30.306;2023-04-10T10:27:39;102494.13;;;14.20;32.72
41254;BME280;26987;59.928;30.306;2023-04-10T10:30:09;102497.00;;;14.18;32.16
41254;BME280;26987;59.928;30.306;2023-04-10T10:32:38;102469.50;;;14.08;32.30
41254;BME280;26987;59.928;30.306;2023-04-10T10:35:08;102476.19;;;14.12;32.19
41254;BME280;26987;59.928;30.306;2023-04-10T10:37:36;102472.63;;;14.11;31.99
41254;BME280;26987;59.928;30.306;2023-04-10T10:40:10;102481.63;;;14.19;32.15
41254;BME280;26987;59.928;30.306;2023-04-10T10:42:46;102478.56;;;14.22;32.07
41254;BME280;26987;59.928;30.306;2023-04-10T10:45:18;102476.34;;;14.25;31.83
41254;BME280;26987;59.928;30.306;2023-04-10T10:47:50;102439.25;;;14.12;31.81
41254;BME280;26987;59.928;30.306;2023-04-10T10:50:18;102457.53;;;14.32;32.12
41254;BME280;26987;59.928;30.306;2023-04-10T10:52:49;102469.44;;;14.38;31.64
41254;BME280;26987;59.928;30.306;2023-04-10T10:55:31;102474.59;;;14.55;31.86
41254;BME280;26987;59.928;30.306;2023-04-10T10:58:05;102465.50;;;14.41;31.79
41254;BME280;26987;59.928;30.306;2023-04-10T11:01:04;102459.56;;;14.45;31.90
41254;BME280;26987;59.928;30.306;2023-04-10T11:03:33;102438.19;;;14.29;31.34
41254;BME280;26987;59.928;30.306;2023-04-10T11:06:02;102449.91;;;14.36;31.47
41254;BME280;26987;59.928;30.306;2023-04-10T11:08:37;102451.44;;;14.45;31.68
41254;BME280;26987;59.928;30.306;2023-04-10T11:11:12;102454.16;;;14.45;32.00
41254;BME280;26987;59.928;30.306;2023-04-10T11:14:12;102429.97;;;14.37;32.56
41254;BME280;26987;59.928;30.306;2023-04-10T11:16:45;102439.84;;;14.30;31.90
41254;BME280;26987;59.928;30.306;2023-04-10T11:19:13;102438.38;;;14.27;31.65
41254;BME280;26987;59.928;30.306;2023-04-10T11:22:03;102431.84;;;14.36;31.71
41254;BME280;26987;59.928;30.306;2023-04-10T11:24:52;102434.94;;;14.55;31.50
41254;BME280;26987;59.928;30.306;2023-04-10T11:27:40;102430.38;;;14.78;31.15
41254;BME280;26987;59.928;30.306;2023-04-10T11:30:28;102433.72;;;15.01;30.59
41254;BME280;26987;59.928;30.306;2023-04-10T11:32:57;102431.69;;;14.82;30.30
41254;BME280;26987;59.928;30.306;2023-04-10T11:35:25;102427.56;;;14.86;30.37
41254;BME280;26987;59.928;30.306;2023-04-10T11:38:15;102429.44;;;15.14;30.37
41254;BME280;26987;59.928;30.306;2023-04-10T11:40:57;102422.81;;;15.17;30.32
41254;BME280;26987;59.928;30.306;2023-04-10T11:43:25;102412.56;;;15.05;30.04
41254;BME280;26987;59.928;30.306;2023-04-10T11:46:02;102390.75;;;15.07;30.17
41254;BME280;26987;59.928;30.306;2023-04-10T11:48:31;102409.53;;;15.15;30.26
41254;BME280;26987;59.928;30.306;2023-04-10T11:51:05;102410.03;;;15.32;30.52
41254;BME280;26987;59.928;30.306;2023-04-10T11:53:33;102406.09;;;15.70;30.02
41254;BME280;26987;59.928;30.306;2023-04-10T11:56:01;102401.03;;;15.54;29.86
41254;BME280;26987;59.928;30.306;2023-04-10T11:58:29;102391.91;;;15.61;29.72
41254;BME280;26987;59.928;30.306;2023-04-10T12:00:59;102402.28;;;15.58;29.49
41254;BME280;26987;59.928;30.306;2023-04-10T12:03:38;102358.56;;;15.41;29.79
41254;BME280;26987;59.928;30.306;2023-04-10T12:06:08;102381.25;;;15.53;29.68
41254;BME280;26987;59.928;30.306;2023-04-10T12:08:38;102397.19;;;15.76;29.92
41254;BME280;26987;59.928;30.306;2023-04-10T12:11:07;102346.13;;;15.53;29.84
41254;BME280;26987;59.928;30.306;2023-04-10T12:13:36;102383.88;;;15.75;29.70
41254;BME280;26987;59.928;30.306;2023-04-10T12:16:06;102378.88;;;15.72;30.46
41254;BME280;26987;59.928;30.306;2023-04-10T12:18:37;102389.69;;;15.72;30.70
41254;BME280;26987;59.928;30.306;2023-04-10T12:21:06;102368.34;;;15.48;31.17
41254;BME280;26987;59.928;30.306;2023-04-10T12:23:36;102380.91;;;15.63;31.24
41254;BME280;26987;59.928;30.306;2023-04-10T12:26:10;102346.78;;;15.62;31.27
41254;BME280;26987;59.928;30.306;2023-04-10T12:28:40;102366.00;;;15.87;30.56
41254;BME280;26987;59.928;30.306;2023-04-10T12:31:08;102353.72;;;15.85;30.18
41254;BME280;26987;59.928;30.306;2023-04-10T12:33:38;102361.09;;;15.98;30.29
41254;BME280;26987;59.928;30.306;2023-04-10T12:36:19;102360.69;;;16.14;30.34
41254;BME280;26987;59.928;30.306;2023-04-10T12:38:47;102355.69;;;15.98;30.16
41254;BME280;26987;59.928;30.306;2023-04-10T12:41:20;102363.41;;;16.08;30.37
41254;BME280;26987;59.928;30.306;2023-04-10T12:43:50;102356.69;;;15.90;30.01
41254;BME280;26987;59.928;30.306;2023-04-10T12:46:24;102352.28;;;15.89;30.97
41254;BME280;26987;59.928;30.306;2023-04-10T12:48:54;102355.81;;;15.83;31.38
41254;BME280;26987;59.928;30.306;2023-04-10T12:51:46;102349.03;;;16.00;31.53
41254;BME280;26987;59.928;30.306;2023-04-10T12:54:27;102348.00;;;16.01;31.76
41254;BME280;26987;59.928;30.306;2023-04-10T12:56:56;102345.41;;;15.86;31.68
41254;BME280;26987;59.928;30.306;2023-04-10T12:59:24;102347.06;;;15.81;32.03
41254;BME280;26987;59.928;30.306;2023-04-10T13:01:53;102338.50;;;15.77;32.07
41254;BME280;26987;59.928;30.306;2023-04-10T13:04:23;102337.25;;;15.66;32.10
41254;BME280;26987;59.928;30.306;2023-04-10T13:06:50;102340.16;;;15.64;32.11
41254;BME280;26987;59.928;30.306;2023-04-10T13:09:19;102344.91;;;15.62;31.98
41254;BME280;26987;59.928;30.306;2023-04-10T13:11:47;102327.84;;;15.62;31.90
41254;BME280;26987;59.928;30.306;2023-04-10T13:14:14;102322.00;;;15.51;31.79